Time;durP1;ratioP1;P1;durP2;ratioP2;P2;SDS_P1;SDS_P2;PMS_P1;PMS_P2;Temp;Humidity;BMP_temperature;BMP_pressure;BME280_temperature;BME280_humidity;BME280_pressure;Samples;Min_cycle;Max_cycle;Signal;HPM_P1;HPM_P2
2023/10/04 00:01:22;;;;;;;12.10;5.85;;;;;;;;;;5154143;27;20011;-74
2023/10/04 00:04:07;;;;;;;12.57;5.68;;;;;;;;;;5160229;27;20019;-74
2023/10/04 00:06:53;;;;;;;12.00;5.72;;;;;;;;;;5175857;27;20018;-74
2023/10/04 00:09:39;;;;;;;9.27;5.20;;;;;;;;;;5174394;27;20101;-73
2023/10/04 00:12:24;;;;;;;10.85;5.53;;;;;;;;;;5175156;27;20037;-75
2023/10/04 00:15:13;;;;;;;12.50;5.95;;;;;;;;;;5175667;27;20014;-73
2023/10/04 00:17:59;;;;;;;16.30;5.80;;;;;;;;;;5174432;27;20022;-75
2023/10/04 00:20:45;;;;;;;10.65;5.85;;;;;;;;;;5174520;27;20086;-75
2023/10/04 00:23:30;;;;;;;11.63;5.78;;;;;;;;;;5175247;27;20109;-74
2023/10/04 00:26:16;;;;;;;10.57;5.43;;;;;;;;;;5174176;27;20026;-75
2023/10/04 00:29:04;;;;;;;12.05;5.53;;;;;;;;;;5174773;27;20052;-75
2023/10/04 00:31:49;;;;;;;10.88;5.45;;;;;;;;;;5173685;27;20033;-74
2023/10/04 00:34:38;;;;;;;14.93;6.50;;;;;;;;;;5174530;27;20022;-74
2023/10/04 00:37:24;;;;;;;16.85;7.03;;;;;;;;;;5160459;27;20022;-74
2023/10/04 00:40:18;;;;;;;15.48;7.28;;;;;;;;;;5159733;27;20018;-74
2023/10/04 00:43:12;;;;;;;19.70;7.82;;;;;;;;;;5160800;27;20033;-74
2023/10/04 00:45:58;;;;;;;16.77;7.85;;;;;;;;;;5159772;27;20101;-74
2023/10/04 00:48:44;;;;;;;14.57;7.35;;;;;;;;;;5174300;27;20092;-73
2023/10/04 00:51:36;;;;;;;14.88;7.13;;;;;;;;;;5175174;27;20036;-74
2023/10/04 00:54:21;;;;;;;18.05;7.32;;;;;;;;;;5161035;27;20444;-73
2023/10/04 00:57:10;;;;;;;16.02;6.28;;;;;;;;;;5161239;27;20436;-73
2023/10/04 00:59:56;;;;;;;11.63;6.43;;;;;;;;;;5174102;27;20352;-73
2023/10/04 01:02:42;;;;;;;13.98;6.68;;;;;;;;;;5159530;27;20037;-74
2023/10/04 01:05:28;;;;;;;14.23;7.25;;;;;;;;;;5174402;27;20363;-72
2023/10/04 01:08:20;;;;;;;15.45;7.30;;;;;;;;;;5174249;27;20245;-74
2023/10/04 01:11:09;;;;;;;13.77;6.47;;;;;;;;;;5177735;27;20392;-73
2023/10/04 01:14:09;;;;;;;13.55;6.85;;;;;;;;;;5178649;27;20029;-73
2023/10/04 01:16:56;;;;;;;16.50;6.75;;;;;;;;;;5178722;27;20033;-74
2023/10/04 01:19:42;;;;;;;14.52;7.00;;;;;;;;;;5163539;27;20018;-72
2023/10/04 01:22:27;;;;;;;13.68;6.80;;;;;;;;;;5177630;27;20050;-73
2023/10/04 01:25:15;;;;;;;17.60;6.25;;;;;;;;;;5178066;27;20014;-73
2023/10/04 01:28:17;;;;;;;18.25;6.50;;;;;;;;;;5178023;27;20071;-72
2023/10/04 01:31:02;;;;;;;13.73;6.18;;;;;;;;;;5162779;27;20022;-74
2023/10/04 01:33:48;;;;;;;14.60;6.40;;;;;;;;;;5162911;27;20056;-74
2023/10/04 01:36:36;;;;;;;21.23;7.07;;;;;;;;;;5163335;27;20021;-74
2023/10/04 01:39:25;;;;;;;12.52;6.25;;;;;;;;;;5178510;27;20424;-73
2023/10/04 01:42:11;;;;;;;13.07;6.50;;;;;;;;;;5163531;27;20030;-74
2023/10/04 01:44:57;;;;;;;13.02;6.38;;;;;;;;;;5163482;27;20022;-74
2023/10/04 01:47:43;;;;;;;15.57;7.45;;;;;;;;;;5177297;27;20443;-74
2023/10/04 01:50:29;;;;;;;13.82;6.32;;;;;;;;;;5176834;27;20093;-75
2023/10/04 01:53:15;;;;;;;15.50;6.65;;;;;;;;;;5162407;27;20097;-75
2023/10/04 01:56:06;;;;;;;13.90;7.45;;;;;;;;;;5177919;27;20029;-74
2023/10/04 01:58:51;;;;;;;14.43;6.90;;;;;;;;;;5161987;27;20014;-75
2023/10/04 02:01:37;;;;;;;16.73;6.43;;;;;;;;;;5177312;27;20033;-74
2023/10/04 02:04:23;;;;;;;13.52;6.90;;;;;;;;;;5176675;27;20053;-75
2023/10/04 02:07:09;;;;;;;11.75;6.35;;;;;;;;;;5176475;27;20057;-74
2023/10/04 02:09:54;;;;;;;17.92;6.30;;;;;;;;;;5178047;27;20408;-74
2023/10/04 02:12:43;;;;;;;13.35;6.35;;;;;;;;;;5176029;27;20089;-74
2023/10/04 02:15:28;;;;;;;14.80;6.45;;;;;;;;;;5155118;27;20015;-75
2023/10/04 02:18:15;;;;;;;12.27;5.88;;;;;;;;;;5156288;27;20048;-75
2023/10/04 02:21:00;;;;;;;13.15;6.25;;;;;;;;;;5141612;27;20447;-74
2023/10/04 02:23:46;;;;;;;12.82;6.20;;;;;;;;;;5159025;27;20022;-74
2023/10/04 02:26:35;;;;;;;16.95;6.35;;;;;;;;;;5142679;27;20115;-74
2023/10/04 02:29:21;;;;;;;10.95;5.93;;;;;;;;;;5157896;27;20078;-74
2023/10/04 02:32:09;;;;;;;12.93;6.32;;;;;;;;;;5156547;27;20023;-73
2023/10/04 02:34:54;;;;;;;13.18;6.38;;;;;;;;;;5158194;27;20101;-74
2023/10/04 02:37:42;;;;;;;14.10;6.10;;;;;;;;;;5157847;27;20018;-74
2023/10/04 02:40:27;;;;;;;13.68;5.70;;;;;;;;;;5157082;27;20022;-74
2023/10/04 02:43:15;;;;;;;13.30;5.95;;;;;;;;;;5156819;27;20087;-74
2023/10/04 02:46:01;;;;;;;15.23;6.20;;;;;;;;;;5157305;27;20103;-75
2023/10/04 02:48:48;;;;;;;12.00;6.07;;;;;;;;;;5157141;27;20046;-74
2023/10/04 02:51:34;;;;;;;16.75;6.00;;;;;;;;;;5156849;27;20034;-73
2023/10/04 02:54:20;;;;;;;16.05;6.35;;;;;;;;;;5174970;27;20011;-73
2023/10/04 02:57:07;;;;;;;13.48;6.28;;;;;;;;;;5179362;27;20019;-73
2023/10/04 02:59:54;;;;;;;12.48;6.25;;;;;;;;;;5179459;27;20010;-76
2023/10/04 03:02:42;;;;;;;11.60;5.93;;;;;;;;;;5164634;27;20329;-74
2023/10/04 03:05:29;;;;;;;16.83;7.00;;;;;;;;;;5156084;27;20030;-74
2023/10/04 03:08:17;;;;;;;12.80;6.38;;;;;;;;;;5156753;27;20511;-74
2023/10/04 03:11:03;;;;;;;13.70;6.40;;;;;;;;;;5155929;27;20026;-74
2023/10/04 03:13:49;;;;;;;10.88;5.88;;;;;;;;;;5155391;27;20075;-75
2023/10/04 03:16:34;;;;;;;13.60;6.22;;;;;;;;;;5140999;27;20014;-74
2023/10/04 03:19:20;;;;;;;12.98;6.10;;;;;;;;;;5140982;27;20011;-75
2023/10/04 03:22:06;;;;;;;14.02;6.65;;;;;;;;;;5156558;27;20023;-74
2023/10/04 03:24:55;;;;;;;12.30;6.20;;;;;;;;;;5140901;27;20033;-75
2023/10/04 03:27:43;;;;;;;13.27;6.15;;;;;;;;;;5156190;27;20030;-75
2023/10/04 03:30:31;;;;;;;13.60;5.88;;;;;;;;;;5140568;27;20378;-74
2023/10/04 03:33:17;;;;;;;13.00;6.72;;;;;;;;;;5155552;27;20109;-75
2023/10/04 03:36:04;;;;;;;11.23;6.10;;;;;;;;;;5154379;27;20019;-74
2023/10/04 03:38:50;;;;;;;13.10;6.72;;;;;;;;;;5155423;27;20050;-76
2023/10/04 03:41:36;;;;;;;13.43;6.20;;;;;;;;;;5155012;27;20037;-74
2023/10/04 03:44:22;;;;;;;18.52;6.65;;;;;;;;;;5155547;27;20110;-75
2023/10/04 03:47:09;;;;;;;14.75;6.90;;;;;;;;;;5155275;27;20033;-74
2023/10/04 03:49:54;;;;;;;15.35;6.38;;;;;;;;;;5140865;27;20046;-74
2023/10/04 03:52:42;;;;;;;14.38;6.78;;;;;;;;;;5140158;27;20060;-75
2023/10/04 03:55:28;;;;;;;25.20;7.75;;;;;;;;;;5155734;27;20048;-75
2023/10/04 03:58:19;;;;;;;14.27;7.07;;;;;;;;;;5140869;27;20021;-76
2023/10/04 04:01:05;;;;;;;16.95;6.63;;;;;;;;;;5155391;27;20054;-75
2023/10/04 04:03:50;;;;;;;11.23;6.10;;;;;;;;;;5155686;27;20054;-76
2023/10/04 04:06:36;;;;;;;17.33;7.25;;;;;;;;;;5141030;27;20018;-74
2023/10/04 04:09:23;;;;;;;16.70;6.78;;;;;;;;;;5155347;27;20015;-75
2023/10/04 04:12:09;;;;;;;13.60;6.57;;;;;;;;;;5159702;27;20034;-73
2023/10/04 04:14:55;;;;;;;16.02;6.93;;;;;;;;;;5141621;27;20019;-74
2023/10/04 04:17:41;;;;;;;14.88;6.88;;;;;;;;;;5156071;27;20042;-75
2023/10/04 04:20:28;;;;;;;12.93;6.68;;;;;;;;;;5154878;27;20030;-74
2023/10/04 04:23:16;;;;;;;17.05;7.10;;;;;;;;;;5140428;27;20027;-76
2023/10/04 04:26:05;;;;;;;19.02;7.45;;;;;;;;;;5155408;27;20037;-75
2023/10/04 04:28:51;;;;;;;14.80;7.03;;;;;;;;;;5153939;27;20459;-75
2023/10/04 04:31:37;;;;;;;19.27;7.63;;;;;;;;;;5140606;27;20065;-74
2023/10/04 04:34:25;;;;;;;15.82;6.80;;;;;;;;;;5155338;27;20026;-74
2023/10/04 04:37:14;;;;;;;17.08;7.90;;;;;;;;;;5155405;27;20022;-75
2023/10/04 04:40:00;;;;;;;21.55;7.05;;;;;;;;;;5155697;27;20015;-75
2023/10/04 04:42:47;;;;;;;13.13;6.90;;;;;;;;;;5155439;27;20027;-76
2023/10/04 04:45:34;;;;;;;17.88;7.78;;;;;;;;;;5157806;27;20386;-76
2023/10/04 04:48:24;;;;;;;23.02;7.35;;;;;;;;;;5142937;27;20046;-74
2023/10/04 04:53:56;;;;;;;22.50;7.28;;;;;;;;;;5164788;27;20011;-74
2023/10/04 04:56:41;;;;;;;44.72;7.93;;;;;;;;;;5170994;27;20452;-74
2023/10/04 04:59:28;;;;;;;30.65;8.73;;;;;;;;;;5149689;27;20033;-74
2023/10/04 05:02:14;;;;;;;41.42;7.88;;;;;;;;;;5143140;27;20022;-73
2023/10/04 05:05:02;;;;;;;32.90;9.40;;;;;;;;;;5157696;27;20023;-73
2023/10/04 05:07:48;;;;;;;22.98;8.32;;;;;;;;;;5143545;27;20114;-75
2023/10/04 05:10:38;;;;;;;29.92;9.23;;;;;;;;;;5158867;27;20065;-74
2023/10/04 05:13:24;;;;;;;60.38;9.32;;;;;;;;;;5142732;27;20090;-73
2023/10/04 05:16:10;;;;;;;29.77;8.25;;;;;;;;;;5159283;27;20040;-73
2023/10/04 05:18:56;;;;;;;41.15;8.40;;;;;;;;;;5145667;27;20352;-74
2023/10/04 05:21:41;;;;;;;25.65;7.80;;;;;;;;;;5146246;27;20365;-74
2023/10/04 05:24:27;;;;;;;15.88;6.63;;;;;;;;;;5149594;27;20022;-73
2023/10/04 05:27:12;;;;;;;14.00;6.32;;;;;;;;;;5162824;27;20026;-74
2023/10/04 05:29:58;;;;;;;14.00;6.72;;;;;;;;;;5158953;27;20023;-73
2023/10/04 05:32:45;;;;;;;20.75;6.85;;;;;;;;;;5159570;27;20090;-73
2023/10/04 05:35:30;;;;;;;16.25;6.75;;;;;;;;;;5144210;27;20029;-75
2023/10/04 05:38:17;;;;;;;20.27;6.97;;;;;;;;;;5143540;27;20011;-74
2023/10/04 05:41:03;;;;;;;33.65;8.23;;;;;;;;;;5158665;27;20019;-74
2023/10/04 05:43:49;;;;;;;17.25;6.82;;;;;;;;;;5158886;27;20023;-72
2023/10/04 05:46:35;;;;;;;19.25;7.13;;;;;;;;;;5143805;27;20106;-74
2023/10/04 05:49:20;;;;;;;19.08;6.22;;;;;;;;;;5143931;27;20043;-74
2023/10/04 05:52:06;;;;;;;19.08;6.88;;;;;;;;;;5142756;27;20068;-74
2023/10/04 05:54:51;;;;;;;12.38;6.53;;;;;;;;;;5143781;27;20034;-74
2023/10/04 05:57:37;;;;;;;16.75;6.95;;;;;;;;;;5156254;27;20038;-75
2023/10/04 06:00:30;;;;;;;20.83;6.93;;;;;;;;;;5158309;27;20118;-73
2023/10/04 06:03:15;;;;;;;20.83;8.07;;;;;;;;;;5159996;27;20520;-73
2023/10/04 06:06:01;;;;;;;23.00;8.13;;;;;;;;;;5158802;27;20018;-75
2023/10/04 06:08:46;;;;;;;18.85;7.57;;;;;;;;;;5145160;27;20026;-75
2023/10/04 06:11:32;;;;;;;17.17;7.55;;;;;;;;;;5144465;27;20023;-75
2023/10/04 06:14:17;;;;;;;17.90;7.68;;;;;;;;;;5160135;27;20015;-75
2023/10/04 06:17:06;;;;;;;12.10;6.75;;;;;;;;;;5159603;27;20015;-76
2023/10/04 06:19:54;;;;;;;15.27;6.68;;;;;;;;;;5174945;27;20015;-74
2023/10/04 06:22:39;;;;;;;15.52;6.22;;;;;;;;;;5161530;27;20014;-74
2023/10/04 06:25:26;;;;;;;13.82;6.53;;;;;;;;;;5174413;27;20023;-75
2023/10/04 06:28:12;;;;;;;21.33;6.97;;;;;;;;;;5175105;27;20031;-74
2023/10/04 06:30:57;;;;;;;19.00;6.60;;;;;;;;;;5175142;27;20074;-75
2023/10/04 06:33:43;;;;;;;13.65;6.70;;;;;;;;;;5174676;27;20029;-74
2023/10/04 06:36:29;;;;;;;14.55;6.22;;;;;;;;;;5173765;27;20007;-74
2023/10/04 06:39:17;;;;;;;19.48;6.22;;;;;;;;;;5160131;27;20352;-75
2023/10/04 06:42:04;;;;;;;15.75;6.07;;;;;;;;;;5158681;27;20432;-75
2023/10/04 06:44:49;;;;;;;11.45;5.97;;;;;;;;;;5148523;27;20033;-75
2023/10/04 06:47:35;;;;;;;16.98;6.50;;;;;;;;;;5158989;27;20010;-75
2023/10/04 06:50:22;;;;;;;17.30;7.15;;;;;;;;;;5171938;27;20095;-76
2023/10/04 06:53:12;;;;;;;13.65;7.22;;;;;;;;;;5164020;27;20038;-73
2023/10/04 06:55:57;;;;;;;21.38;6.78;;;;;;;;;;5173395;27;20018;-74
2023/10/04 06:58:43;;;;;;;18.95;7.43;;;;;;;;;;5176607;27;19999;-74
2023/10/04 07:01:29;;;;;;;15.10;6.40;;;;;;;;;;5175032;27;20070;-76
2023/10/04 07:04:14;;;;;;;22.83;9.65;;;;;;;;;;5162226;27;20041;-74
2023/10/04 07:07:00;;;;;;;20.10;7.32;;;;;;;;;;5160295;27;20023;-73
2023/10/04 07:09:46;;;;;;;19.60;7.97;;;;;;;;;;5158993;27;20067;-75
2023/10/04 07:12:33;;;;;;;16.17;7.40;;;;;;;;;;5148808;27;20026;-75
2023/10/04 07:15:19;;;;;;;26.63;7.45;;;;;;;;;;5160421;27;20022;-75
2023/10/04 07:18:12;;;;;;;12.50;6.13;;;;;;;;;;5158034;27;20026;-75
2023/10/04 07:20:57;;;;;;;21.13;7.25;;;;;;;;;;5157331;27;20022;-75
2023/10/04 07:23:43;;;;;;;15.90;7.10;;;;;;;;;;5156256;27;20054;-74
2023/10/04 07:26:34;;;;;;;17.00;6.80;;;;;;;;;;5141166;27;20030;-75
2023/10/04 07:29:20;;;;;;;14.57;6.07;;;;;;;;;;5141966;27;20414;-75
2023/10/04 07:32:05;;;;;;;15.55;6.18;;;;;;;;;;5141050;27;20467;-75
2023/10/04 07:34:51;;;;;;;15.05;6.63;;;;;;;;;;5156756;27;20396;-75
2023/10/04 07:37:37;;;;;;;14.73;6.53;;;;;;;;;;5156095;27;20026;-74
2023/10/04 07:40:23;;;;;;;22.50;6.78;;;;;;;;;;5157078;27;20033;-74
2023/10/04 07:43:09;;;;;;;12.90;6.40;;;;;;;;;;5155932;27;20408;-74
2023/10/04 07:45:57;;;;;;;15.25;6.72;;;;;;;;;;5156408;27;20037;-77
2023/10/04 07:48:42;;;;;;;13.90;6.43;;;;;;;;;;5154549;27;20038;-74
2023/10/04 07:51:28;;;;;;;12.52;6.53;;;;;;;;;;5156036;27;20027;-74
2023/10/04 07:54:13;;;;;;;14.70;7.35;;;;;;;;;;5155296;27;20405;-75
2023/10/04 07:56:59;;;;;;;16.75;6.78;;;;;;;;;;5155194;27;20122;-74
2023/10/04 07:59:45;;;;;;;13.23;6.50;;;;;;;;;;5154862;27;20018;-75
2023/10/04 08:02:30;;;;;;;12.98;6.50;;;;;;;;;;5141425;27;20018;-74
2023/10/04 08:05:20;;;;;;;15.15;6.25;;;;;;;;;;5141082;27;20015;-76
2023/10/04 08:08:05;;;;;;;18.33;6.93;;;;;;;;;;5140903;27;20017;-75
2023/10/04 08:10:51;;;;;;;82.45;11.80;;;;;;;;;;5140406;27;20061;-75
2023/10/04 08:13:38;;;;;;;12.93;6.78;;;;;;;;;;5155779;27;20536;-74
2023/10/04 08:16:24;;;;;;;18.77;6.95;;;;;;;;;;5155565;27;20379;-75
2023/10/04 08:19:10;;;;;;;11.82;6.30;;;;;;;;;;5154501;27;20322;-73
2023/10/04 08:21:56;;;;;;;14.82;6.55;;;;;;;;;;5156600;27;20015;-75
2023/10/04 08:24:44;;;;;;;16.52;7.03;;;;;;;;;;5140289;27;20440;-75
2023/10/04 08:27:29;;;;;;;12.48;6.35;;;;;;;;;;5155912;27;20036;-74
2023/10/04 08:30:16;;;;;;;14.70;6.80;;;;;;;;;;5157103;27;20030;-74
2023/10/04 08:33:03;;;;;;;15.80;7.40;;;;;;;;;;5155383;27;20463;-75
2023/10/04 08:35:48;;;;;;;17.23;8.25;;;;;;;;;;5157264;27;20022;-76
2023/10/04 08:38:34;;;;;;;14.10;7.95;;;;;;;;;;5175607;27;20042;-75
2023/10/04 08:41:20;;;;;;;33.17;8.35;;;;;;;;;;5160940;27;20050;-75
2023/10/04 08:44:06;;;;;;;15.65;8.02;;;;;;;;;;5172963;27;20003;-75
2023/10/04 08:46:55;;;;;;;15.35;7.57;;;;;;;;;;5162048;27;20029;-75
2023/10/04 08:49:49;;;;;;;18.60;8.40;;;;;;;;;;5150394;28;20043;-76
2023/10/04 08:52:36;;;;;;;19.95;8.48;;;;;;;;;;5134403;28;20015;-75
2023/10/04 08:55:24;;;;;;;27.77;10.05;;;;;;;;;;5135557;28;20034;-75
2023/10/04 08:58:10;;;;;;;19.38;8.77;;;;;;;;;;5136103;28;20019;-74
2023/10/04 09:00:56;;;;;;;18.48;9.70;;;;;;;;;;5134189;28;20023;-75
2023/10/04 09:03:42;;;;;;;15.75;8.32;;;;;;;;;;5133696;28;20322;-75
2023/10/04 09:06:28;;;;;;;19.35;7.75;;;;;;;;;;5135697;28;20027;-75
2023/10/04 09:09:15;;;;;;;20.27;7.80;;;;;;;;;;5135791;28;20539;-75
2023/10/04 09:12:01;;;;;;;14.57;8.00;;;;;;;;;;5134263;28;20034;-75
2023/10/04 09:14:47;;;;;;;15.45;7.65;;;;;;;;;;5133999;28;20030;-75
2023/10/04 09:17:42;;;;;;;17.92;8.40;;;;;;;;;;5135023;28;20030;-75
2023/10/04 09:20:35;;;;;;;18.52;7.70;;;;;;;;;;5133763;28;20091;-75
2023/10/04 09:23:24;;;;;;;20.13;8.45;;;;;;;;;;5133198;28;20049;-75
2023/10/04 09:26:16;;;;;;;16.17;7.97;;;;;;;;;;5135497;28;20340;-75
2023/10/04 09:29:02;;;;;;;17.40;8.02;;;;;;;;;;5134477;28;20019;-75
2023/10/04 09:31:50;;;;;;;17.23;8.07;;;;;;;;;;5138414;27;20056;-77
2023/10/04 09:34:36;;;;;;;16.75;7.75;;;;;;;;;;5142051;27;20027;-75
2023/10/04 09:37:24;;;;;;;13.18;8.23;;;;;;;;;;5139375;27;20023;-74
2023/10/04 09:40:12;;;;;;;19.33;8.10;;;;;;;;;;5139991;27;20023;-73
2023/10/04 09:43:00;;;;;;;15.18;8.35;;;;;;;;;;5138897;27;20026;-74
2023/10/04 09:45:56;;;;;;;19.98;7.68;;;;;;;;;;5137807;27;20023;-74
2023/10/04 09:48:44;;;;;;;17.90;8.25;;;;;;;;;;5140522;27;20520;-70
2023/10/04 09:51:29;;;;;;;15.55;7.68;;;;;;;;;;5158221;27;20364;-70
2023/10/04 09:54:18;;;;;;;17.38;7.78;;;;;;;;;;5157879;27;20019;-71
2023/10/04 09:57:08;;;;;;;18.10;8.90;;;;;;;;;;5158309;27;20099;-71
2023/10/04 09:59:54;;;;;;;14.02;8.38;;;;;;;;;;5170859;27;20010;-71
2023/10/04 10:02:40;;;;;;;25.85;10.35;;;;;;;;;;5176205;27;20022;-71
2023/10/04 10:05:28;;;;;;;21.00;11.38;;;;;;;;;;5177990;27;20070;-71
2023/10/04 10:08:17;;;;;;;20.75;10.23;;;;;;;;;;5163860;27;20018;-71
2023/10/04 10:11:05;;;;;;;22.10;13.02;;;;;;;;;;5176933;27;20018;-71
2023/10/04 10:13:52;;;;;;;23.00;12.07;;;;;;;;;;5162978;27;20022;-72
2023/10/04 10:16:38;;;;;;;22.20;11.02;;;;;;;;;;5163296;27;20037;-72
2023/10/04 10:19:24;;;;;;;21.75;11.07;;;;;;;;;;5163575;27;20014;-71
2023/10/04 10:22:16;;;;;;;29.08;14.27;;;;;;;;;;5164680;27;20029;-71
2023/10/04 10:25:04;;;;;;;23.08;13.73;;;;;;;;;;5171374;27;20450;-71
2023/10/04 10:27:50;;;;;;;20.25;13.05;;;;;;;;;;5157205;27;20023;-72
2023/10/04 10:30:36;;;;;;;25.70;14.07;;;;;;;;;;5166016;27;20029;-72
2023/10/04 10:33:22;;;;;;;23.38;11.88;;;;;;;;;;5157866;27;20050;-74
2023/10/04 10:36:17;;;;;;;26.02;12.75;;;;;;;;;;5142245;27;20043;-73
2023/10/04 10:39:18;;;;;;;28.55;12.05;;;;;;;;;;5157021;27;20111;-73
2023/10/04 10:42:03;;;;;;;19.88;12.18;;;;;;;;;;5141400;27;20014;-73
2023/10/04 10:44:50;;;;;;;24.05;11.02;;;;;;;;;;5156180;27;20360;-73
2023/10/04 10:47:36;;;;;;;23.02;11.27;;;;;;;;;;5141579;27;20034;-74
2023/10/04 10:50:31;;;;;;;21.52;11.90;;;;;;;;;;5156969;27;20043;-71
2023/10/04 10:53:17;;;;;;;21.15;10.68;;;;;;;;;;5165218;27;20091;-69
2023/10/04 10:56:02;;;;;;;22.45;11.45;;;;;;;;;;5161594;27;20442;-70
2023/10/04 10:58:48;;;;;;;19.08;11.40;;;;;;;;;;5176353;27;20436;-71
2023/10/04 11:01:34;;;;;;;23.73;12.25;;;;;;;;;;5161985;27;20105;-70
2023/10/04 11:04:19;;;;;;;20.23;13.32;;;;;;;;;;5177407;27;20350;-71
2023/10/04 11:07:06;;;;;;;24.50;12.48;;;;;;;;;;5176664;27;20033;-71
2023/10/04 11:09:53;;;;;;;23.65;12.98;;;;;;;;;;5162188;27;20041;-71
2023/10/04 11:12:42;;;;;;;29.63;13.02;;;;;;;;;;5176560;27;20030;-70
2023/10/04 11:15:27;;;;;;;22.25;11.95;;;;;;;;;;5177259;27;20093;-71
2023/10/04 11:18:13;;;;;;;27.25;11.25;;;;;;;;;;5162255;27;20014;-71
2023/10/04 11:21:00;;;;;;;19.90;10.95;;;;;;;;;;5161250;27;20015;-70
2023/10/04 11:23:48;;;;;;;23.73;11.07;;;;;;;;;;5176627;27;20503;-71
2023/10/04 11:26:38;;;;;;;19.50;9.98;;;;;;;;;;5176754;27;20044;-71
2023/10/04 11:29:25;;;;;;;17.52;9.77;;;;;;;;;;5175795;27;20023;-71
2023/10/04 11:32:10;;;;;;;21.33;10.38;;;;;;;;;;5175621;27;20018;-72
2023/10/04 11:34:57;;;;;;;17.15;9.88;;;;;;;;;;5176541;27;20113;-70
2023/10/04 11:37:46;;;;;;;19.35;10.48;;;;;;;;;;5162604;27;20030;-69
2023/10/04 11:40:32;;;;;;;17.17;9.57;;;;;;;;;;5162253;27;20018;-71
2023/10/04 11:43:18;;;;;;;16.05;9.00;;;;;;;;;;5162144;27;20026;-72
2023/10/04 11:46:03;;;;;;;17.73;9.93;;;;;;;;;;5161667;27;20086;-71
2023/10/04 11:48:49;;;;;;;16.65;10.10;;;;;;;;;;5175675;27;20039;-71
2023/10/04 11:51:37;;;;;;;19.23;10.15;;;;;;;;;;5160780;27;20022;-71
2023/10/04 11:54:23;;;;;;;20.75;9.45;;;;;;;;;;5175215;27;20110;-70
2023/10/04 11:57:09;;;;;;;19.58;9.52;;;;;;;;;;5161705;27;20018;-71
2023/10/04 11:59:56;;;;;;;19.85;9.20;;;;;;;;;;5177217;27;20018;-71
2023/10/04 12:02:42;;;;;;;20.55;9.20;;;;;;;;;;5161659;27;20097;-72
2023/10/04 12:05:28;;;;;;;16.95;9.38;;;;;;;;;;5161716;27;20028;-71
2023/10/04 12:08:14;;;;;;;16.10;9.05;;;;;;;;;;5175990;27;20045;-71
2023/10/04 12:11:01;;;;;;;18.42;9.00;;;;;;;;;;5175670;27;20460;-71
2023/10/04 12:13:47;;;;;;;19.55;8.60;;;;;;;;;;5175895;27;20363;-72
2023/10/04 12:16:41;;;;;;;21.58;9.25;;;;;;;;;;5176112;27;20043;-72
2023/10/04 12:19:27;;;;;;;18.85;10.75;;;;;;;;;;5174558;27;20014;-72
2023/10/04 12:22:14;;;;;;;18.20;8.93;;;;;;;;;;5161746;27;20478;-72
2023/10/04 12:25:00;;;;;;;15.77;9.20;;;;;;;;;;5175498;27;20086;-71
2023/10/04 12:27:47;;;;;;;17.40;8.75;;;;;;;;;;5159808;27;20034;-71
2023/10/04 12:30:33;;;;;;;14.85;7.88;;;;;;;;;;5174288;27;20061;-71
2023/10/04 12:33:18;;;;;;;16.88;9.13;;;;;;;;;;5176046;27;20026;-71
2023/10/04 12:36:07;;;;;;;21.42;9.35;;;;;;;;;;5175720;27;20373;-71
2023/10/04 12:38:53;;;;;;;22.23;9.48;;;;;;;;;;5175624;27;20235;-72
2023/10/04 12:41:39;;;;;;;17.45;9.57;;;;;;;;;;5159461;27;20014;-71
2023/10/04 12:44:24;;;;;;;20.55;9.52;;;;;;;;;;5175949;27;20340;-72
2023/10/04 12:47:12;;;;;;;18.63;10.10;;;;;;;;;;5159560;27;20121;-72
2023/10/04 12:49:58;;;;;;;15.68;8.95;;;;;;;;;;5175489;27;20050;-71
2023/10/04 12:52:45;;;;;;;18.17;9.57;;;;;;;;;;5156158;27;20030;-72
2023/10/04 12:55:31;;;;;;;16.52;9.70;;;;;;;;;;5154650;27;20023;-73
2023/10/04 12:58:19;;;;;;;16.88;9.63;;;;;;;;;;5154620;27;20023;-72
2023/10/04 13:01:05;;;;;;;19.00;9.73;;;;;;;;;;5153576;27;20061;-72
2023/10/04 13:03:51;;;;;;;21.50;10.80;;;;;;;;;;5153899;27;20087;-71
2023/10/04 13:06:37;;;;;;;23.73;10.60;;;;;;;;;;5156172;27;20046;-71
2023/10/04 13:09:27;;;;;;;19.77;10.07;;;;;;;;;;5157990;27;20038;-72
2023/10/04 13:12:17;;;;;;;17.20;9.65;;;;;;;;;;5158707;27;20022;-72
2023/10/04 13:15:03;;;;;;;15.77;8.65;;;;;;;;;;5157194;27;20046;-74
2023/10/04 13:17:50;;;;;;;19.15;9.23;;;;;;;;;;5157579;27;20040;-71
2023/10/04 13:20:37;;;;;;;18.00;8.88;;;;;;;;;;5157840;27;20452;-70
2023/10/04 13:23:23;;;;;;;19.73;8.88;;;;;;;;;;5158267;27;20491;-70
2023/10/04 13:26:10;;;;;;;20.77;9.18;;;;;;;;;;5159357;27;20050;-70
2023/10/04 13:28:56;;;;;;;19.23;8.98;;;;;;;;;;5159556;27;20508;-69
2023/10/04 13:31:42;;;;;;;14.05;8.23;;;;;;;;;;5159122;27;20455;-71
2023/10/04 13:34:28;;;;;;;32.22;9.52;;;;;;;;;;5158791;27;20018;-71
2023/10/04 13:37:13;;;;;;;17.33;7.75;;;;;;;;;;5157790;27;20026;-69
2023/10/04 13:40:08;;;;;;;17.05;8.15;;;;;;;;;;5156743;27;20019;-70
2023/10/04 13:42:54;;;;;;;17.52;8.05;;;;;;;;;;5157624;27;20011;-71
2023/10/04 13:45:40;;;;;;;16.33;8.25;;;;;;;;;;5157002;27;20114;-70
2023/10/04 13:48:25;;;;;;;16.85;7.93;;;;;;;;;;5157350;27;20011;-69
2023/10/04 13:51:18;;;;;;;18.00;8.23;;;;;;;;;;5157715;27;20026;-70
2023/10/04 13:54:04;;;;;;;19.67;8.63;;;;;;;;;;5172665;27;20082;-70
2023/10/04 13:56:51;;;;;;;13.13;7.20;;;;;;;;;;5178251;27;20014;-70
2023/10/04 13:59:38;;;;;;;16.63;8.63;;;;;;;;;;5178509;27;20018;-71
2023/10/04 14:02:24;;;;;;;17.08;7.97;;;;;;;;;;5178302;27;20022;-69
2023/10/04 14:05:16;;;;;;;12.65;7.30;;;;;;;;;;5178514;27;20025;-70
2023/10/04 14:08:02;;;;;;;21.55;8.23;;;;;;;;;;5178849;27;20010;-69
2023/10/04 14:10:49;;;;;;;18.60;8.55;;;;;;;;;;5163311;27;20553;-70
2023/10/04 14:13:36;;;;;;;15.02;6.93;;;;;;;;;;5178134;27;20033;-71
2023/10/04 14:16:23;;;;;;;17.70;8.00;;;;;;;;;;5178522;27;20026;-71
2023/10/04 14:19:12;;;;;;;18.65;8.18;;;;;;;;;;5177846;27;20025;-70
2023/10/04 14:21:58;;;;;;;20.50;10.48;;;;;;;;;;5179840;27;20051;-70
2023/10/04 14:24:43;;;;;;;21.52;9.82;;;;;;;;;;5163163;27;20110;-69
2023/10/04 14:27:29;;;;;;;16.90;8.20;;;;;;;;;;5178609;27;20158;-69
2023/10/04 14:30:17;;;;;;;14.38;7.47;;;;;;;;;;5162026;27;20018;-70
2023/10/04 14:33:03;;;;;;;15.10;7.35;;;;;;;;;;5161330;27;20073;-69
2023/10/04 14:35:51;;;;;;;12.00;7.15;;;;;;;;;;5163249;27;20139;-70
2023/10/04 14:38:36;;;;;;;13.90;7.30;;;;;;;;;;5160764;27;20015;-70
2023/10/04 14:41:22;;;;;;;20.73;7.63;;;;;;;;;;5177735;27;20091;-70
2023/10/04 14:44:08;;;;;;;17.25;7.53;;;;;;;;;;5176528;27;20105;-69
2023/10/04 14:46:53;;;;;;;14.32;7.70;;;;;;;;;;5161557;27;20025;-70
2023/10/04 14:49:44;;;;;;;19.90;7.63;;;;;;;;;;5177442;27;20471;-69
2023/10/04 14:52:30;;;;;;;23.77;8.23;;;;;;;;;;5161057;27;20022;-70
2023/10/04 14:55:19;;;;;;;21.00;7.38;;;;;;;;;;5155766;27;20027;-69
2023/10/04 14:58:05;;;;;;;26.50;15.60;;;;;;;;;;5157132;27;20452;-69
2023/10/04 15:00:53;;;;;;;20.63;9.40;;;;;;;;;;5155767;27;20072;-69
2023/10/04 15:03:38;;;;;;;19.13;8.75;;;;;;;;;;5156151;27;20022;-70
2023/10/04 15:06:29;;;;;;;20.52;7.85;;;;;;;;;;5156505;27;20011;-71
2023/10/04 15:09:16;;;;;;;26.60;9.60;;;;;;;;;;5155531;27;20019;-70
2023/10/04 15:12:02;;;;;;;32.08;9.15;;;;;;;;;;5156434;27;20045;-70
2023/10/04 15:14:47;;;;;;;32.72;10.18;;;;;;;;;;5156335;27;20138;-69
2023/10/04 15:17:33;;;;;;;36.13;10.18;;;;;;;;;;5156056;27;20022;-70
2023/10/04 15:20:20;;;;;;;25.85;9.13;;;;;;;;;;5155349;27;20019;-69
2023/10/04 15:23:05;;;;;;;23.10;8.55;;;;;;;;;;5155545;27;20023;-70
2023/10/04 15:25:51;;;;;;;22.67;8.50;;;;;;;;;;5155277;27;20019;-70
2023/10/04 15:28:41;;;;;;;20.95;8.60;;;;;;;;;;5154712;27;20101;-70
2023/10/04 15:31:26;;;;;;;20.52;8.15;;;;;;;;;;5155114;27;20022;-70
2023/10/04 15:34:12;;;;;;;21.42;8.95;;;;;;;;;;5155721;27;20019;-70
2023/10/04 15:36:58;;;;;;;22.50;8.90;;;;;;;;;;5157167;27;20023;-72
2023/10/04 15:39:44;;;;;;;29.05;9.15;;;;;;;;;;5156281;27;20460;-74
2023/10/04 15:42:29;;;;;;;27.75;9.23;;;;;;;;;;5155486;27;20086;-74
2023/10/04 15:45:16;;;;;;;29.35;8.98;;;;;;;;;;5155520;27;20040;-73
2023/10/04 15:48:08;;;;;;;26.90;9.57;;;;;;;;;;5155783;27;20022;-73
2023/10/04 15:50:53;;;;;;;32.55;11.15;;;;;;;;;;5156162;27;20179;-72
2023/10/04 15:53:39;;;;;;;26.58;10.55;;;;;;;;;;5161407;27;20364;-71
2023/10/04 15:56:26;;;;;;;23.15;10.00;;;;;;;;;;5176879;27;20015;-71
2023/10/04 15:59:12;;;;;;;27.88;12.15;;;;;;;;;;5145282;27;20353;-72
2023/10/04 16:01:57;;;;;;;32.63;12.43;;;;;;;;;;5141685;27;20010;-70
2023/10/04 16:04:44;;;;;;;44.38;15.48;;;;;;;;;;5156320;27;20471;-70
2023/10/04 16:07:29;;;;;;;32.42;13.60;;;;;;;;;;5144470;27;20087;-72
2023/10/04 16:10:18;;;;;;;36.05;14.38;;;;;;;;;;5157381;27;20019;-72
2023/10/04 16:13:04;;;;;;;50.00;15.65;;;;;;;;;;5140265;27;20428;-72
2023/10/04 16:15:50;;;;;;;40.85;16.15;;;;;;;;;;5156230;27;20026;-70
2023/10/04 16:18:36;;;;;;;47.00;16.77;;;;;;;;;;5155180;27;20102;-72
2023/10/04 16:21:22;;;;;;;34.35;14.00;;;;;;;;;;5154943;27;20019;-71
2023/10/04 16:24:07;;;;;;;31.58;12.30;;;;;;;;;;5139734;27;20478;-70
2023/10/04 16:26:53;;;;;;;36.40;12.68;;;;;;;;;;5155829;27;20035;-70